createdAt,value
2019-02-28T00:00:09.806Z,5.50
2019-02-28T00:02:38.074Z,5.00
2019-02-28T00:05:06.868Z,5.50
2019-02-28T00:07:35.205Z,5.90
2019-02-28T00:10:03.563Z,5.87
2019-02-28T00:12:31.861Z,5.23
2019-02-28T00:15:00.376Z,5.33
2019-02-28T00:17:28.667Z,5.13
2019-02-28T00:19:58.016Z,5.20
2019-02-28T00:22:27.028Z,4.90
2019-02-28T00:24:55.305Z,4.77
2019-02-28T00:27:23.594Z,4.87
2019-02-28T00:29:51.882Z,5.37
2019-02-28T00:32:21.353Z,5.17
2019-02-28T00:34:50.426Z,5.40
2019-02-28T00:37:18.723Z,5.50
2019-02-28T00:39:46.999Z,5.33
2019-02-28T00:42:17.654Z,5.27
2019-02-28T00:44:45.520Z,5.67
2019-02-28T00:47:16.425Z,4.90
2019-02-28T00:49:43.820Z,5.53
2019-02-28T00:52:12.126Z,5.07
2019-02-28T00:54:44.384Z,5.20
2019-02-28T00:57:10.658Z,4.90
2019-02-28T00:59:38.971Z,4.80
2019-02-28T01:02:07.495Z,4.93
2019-02-28T01:04:35.841Z,4.50
2019-02-28T01:07:04.379Z,4.80
2019-02-28T01:09:32.896Z,5.00
2019-02-28T01:12:01.468Z,5.33
2019-02-28T01:14:32.372Z,5.17
2019-02-28T01:16:59.733Z,4.93
2019-02-28T01:19:28.029Z,4.47
2019-02-28T01:21:56.385Z,4.80
2019-02-28T01:24:24.677Z,4.57
2019-02-28T01:26:52.953Z,4.53
2019-02-28T01:29:21.246Z,5.03
2019-02-28T01:31:49.524Z,4.63
2019-02-28T01:34:18.184Z,4.50
2019-02-28T01:36:48.810Z,4.07
2019-02-28T01:39:16.481Z,4.43
2019-02-28T01:41:45.153Z,4.30
2019-02-28T01:44:14.137Z,4.33
2019-02-28T01:46:42.418Z,4.10
2019-02-28T01:49:10.956Z,4.83
2019-02-28T01:51:39.234Z,4.37
2019-02-28T01:54:07.769Z,4.13
2019-02-28T01:56:36.958Z,4.63
2019-02-28T01:59:06.198Z,4.43
2019-02-28T02:01:34.472Z,4.20
2019-02-28T02:04:02.751Z,4.03
2019-02-28T02:06:31.302Z,4.53
2019-02-28T02:08:59.589Z,4.87
2019-02-28T02:11:27.943Z,4.43
2019-02-28T02:13:56.215Z,4.50
2019-02-28T02:16:27.753Z,4.37
2019-02-28T02:18:54.518Z,5.03
2019-02-28T02:21:22.809Z,4.97
2019-02-28T02:23:53.099Z,4.80
2019-02-28T02:26:21.625Z,4.37
2019-02-28T02:28:49.903Z,5.00
2019-02-28T02:31:18.196Z,5.37
2019-02-28T02:33:50.956Z,5.20
2019-02-28T02:36:17.704Z,5.07
2019-02-28T02:38:46.112Z,5.37
2019-02-28T02:41:14.670Z,5.10
2019-02-28T02:43:42.945Z,5.00
2019-02-28T02:46:11.246Z,5.37
2019-02-28T02:48:42.335Z,4.83
2019-02-28T02:51:11.090Z,5.20
2019-02-28T02:53:41.930Z,5.43
2019-02-28T02:56:09.554Z,5.17
2019-02-28T02:58:37.837Z,4.90
2019-02-28T03:01:06.153Z,5.27
2019-02-28T03:03:34.419Z,5.70
2019-02-28T03:06:02.955Z,5.70
2019-02-28T03:08:35.721Z,5.37
2019-02-28T03:11:01.257Z,5.83
2019-02-28T03:13:29.547Z,5.83
2019-02-28T03:15:59.251Z,5.57
2019-02-28T03:18:27.835Z,6.13
2019-02-28T03:20:56.132Z,5.60
2019-02-28T03:23:24.420Z,5.30
2019-02-28T03:25:52.784Z,5.70
2019-02-28T03:28:21.106Z,5.13
2019-02-28T03:30:49.377Z,5.53
2019-02-28T03:33:27.229Z,6.00
2019-02-28T03:35:47.664Z,5.23
2019-02-28T03:38:15.970Z,4.93
2019-02-28T03:40:44.248Z,5.13
2019-02-28T03:43:12.540Z,5.60
2019-02-28T03:45:40.825Z,5.87
2019-02-28T03:48:09.114Z,5.50
2019-02-28T03:50:37.404Z,5.73
2019-02-28T03:53:06.063Z,5.50
2019-02-28T03:55:40.313Z,6.17
2019-02-28T03:58:05.669Z,6.10
2019-02-28T04:00:34.414Z,5.50
2019-02-28T04:03:02.729Z,6.33
2019-02-28T04:05:31.084Z,5.83
2019-02-28T04:07:59.376Z,6.03
2019-02-28T04:10:27.916Z,6.03
2019-02-28T04:12:56.200Z,6.37
2019-02-28T04:15:24.762Z,6.47
2019-02-28T04:17:53.283Z,6.47
2019-02-28T04:20:21.580Z,5.93
2019-02-28T04:22:49.883Z,6.63
2019-02-28T04:25:22.484Z,6.23
2019-02-28T04:27:48.165Z,6.63
2019-02-28T04:30:16.498Z,6.97
2019-02-28T04:32:45.012Z,7.73
2019-02-28T04:35:13.316Z,8.00
2019-02-28T04:37:46.474Z,7.53
2019-02-28T04:40:12.753Z,7.50
2019-02-28T04:42:41.283Z,7.00
2019-02-28T04:45:14.283Z,7.77
2019-02-28T04:47:42.639Z,7.57
2019-02-28T04:50:11.901Z,8.50
2019-02-28T04:52:40.154Z,7.87
2019-02-28T04:55:09.648Z,7.73
2019-02-28T04:57:37.929Z,7.63
2019-02-28T05:00:17.452Z,7.57
2019-02-28T05:02:45.967Z,7.47
2019-02-28T05:05:14.353Z,7.60
2019-02-28T05:07:42.955Z,8.30
2019-02-28T05:10:11.804Z,8.80
2019-02-28T05:12:41.094Z,8.97
2019-02-28T05:15:11.600Z,8.33
2019-02-28T05:17:39.936Z,8.77
2019-02-28T05:20:10.975Z,8.47
2019-02-28T05:22:39.860Z,8.93
2019-02-28T05:25:10.063Z,8.13
2019-02-28T05:27:38.670Z,9.00
2019-02-28T05:30:18.145Z,8.90
2019-02-28T05:32:44.632Z,8.27
2019-02-28T05:35:13.292Z,8.83
2019-02-28T05:37:46.836Z,10.17
2019-02-28T05:40:13.442Z,10.03
2019-02-28T05:42:41.742Z,9.83
2019-02-28T05:45:11.397Z,9.43
2019-02-28T05:47:46.307Z,9.77
2019-02-28T05:50:15.092Z,9.93
2019-02-28T05:52:41.956Z,9.90
2019-02-28T05:55:10.871Z,10.00
2019-02-28T05:57:43.446Z,9.67
2019-02-28T06:00:13.611Z,9.80
2019-02-28T06:02:41.893Z,10.47
2019-02-28T06:05:11.857Z,10.13
2019-02-28T06:07:40.538Z,9.50
2019-02-28T06:10:13.500Z,9.37
2019-02-28T06:12:43.868Z,10.80
2019-02-28T06:15:13.987Z,10.87
2019-02-28T06:17:42.286Z,9.87
2019-02-28T06:20:12.008Z,10.50
2019-02-28T06:22:40.322Z,10.07
2019-02-28T06:25:11.009Z,10.77
2019-02-28T06:27:41.770Z,10.63
2019-02-28T06:30:14.381Z,10.73
2019-02-28T06:32:42.740Z,11.27
2019-02-28T06:35:16.069Z,10.23
2019-02-28T06:37:41.291Z,11.47
2019-02-28T06:40:12.406Z,10.67
2019-02-28T06:42:43.512Z,10.83
2019-02-28T06:45:18.486Z,10.80
2019-02-28T06:47:49.675Z,11.73
2019-02-28T06:50:17.705Z,12.83
2019-02-28T06:52:45.995Z,11.97
2019-02-28T06:55:24.733Z,12.47
2019-02-28T06:57:53.022Z,10.87
2019-02-28T07:00:21.328Z,12.03
2019-02-28T07:02:50.265Z,12.03
2019-02-28T07:05:24.600Z,11.93
2019-02-28T07:07:50.043Z,12.23
2019-02-28T07:10:18.868Z,12.27
2019-02-28T07:12:47.182Z,11.43
2019-02-28T07:15:15.761Z,12.80
2019-02-28T07:17:46.575Z,13.33
2019-02-28T07:20:19.034Z,12.97
2019-02-28T07:22:47.404Z,12.90
2019-02-28T07:25:15.707Z,13.10
2019-02-28T07:27:44.007Z,12.57
2019-02-28T07:30:19.771Z,13.27
2019-02-28T07:32:48.118Z,13.80
2019-02-28T07:35:16.479Z,13.33
2019-02-28T07:37:44.760Z,15.27
2019-02-28T07:40:17.876Z,14.23
2019-02-28T07:42:46.694Z,11.97
2019-02-28T07:45:15.647Z,13.93
2019-02-28T07:47:44.047Z,14.53
2019-02-28T07:50:13.814Z,15.07
2019-02-28T07:52:42.080Z,15.57
2019-02-28T07:55:13.796Z,15.13
2019-02-28T07:57:42.098Z,15.40
2019-02-28T08:00:18.184Z,14.70
2019-02-28T08:02:46.237Z,13.87
2019-02-28T08:05:14.703Z,14.60
2019-02-28T08:07:43.246Z,13.77
2019-02-28T08:10:20.425Z,14.63
2019-02-28T08:12:48.789Z,14.90
2019-02-28T08:15:25.054Z,14.57
2019-02-28T08:17:53.341Z,16.20
2019-02-28T08:20:21.813Z,18.47
2019-02-28T08:22:50.166Z,18.80
2019-02-28T08:25:18.482Z,18.97
2019-02-28T08:27:46.777Z,19.03
2019-02-28T08:30:23.601Z,20.10
2019-02-28T08:32:52.211Z,18.50
2019-02-28T08:35:20.592Z,19.17
2019-02-28T08:37:55.447Z,18.80
2019-02-28T08:40:21.627Z,24.07
2019-02-28T08:42:50.108Z,20.00
2019-02-28T08:45:18.420Z,21.47
2019-02-28T08:47:46.781Z,19.50
2019-02-28T08:50:20.639Z,20.40
2019-02-28T08:52:50.886Z,20.90
2019-02-28T08:55:27.877Z,20.60
2019-02-28T08:57:55.001Z,22.33
2019-02-28T09:00:24.025Z,21.40
2019-02-28T09:02:53.694Z,20.43
2019-02-28T09:05:25.967Z,21.87
2019-02-28T09:07:52.253Z,22.17
2019-02-28T09:10:22.046Z,22.07
2019-02-28T09:12:50.419Z,22.60
2019-02-28T09:15:19.373Z,22.83
2019-02-28T09:17:47.748Z,21.37
2019-02-28T09:20:16.668Z,21.27
2019-02-28T09:22:45.411Z,20.87
2019-02-28T09:25:21.549Z,21.50
2019-02-28T09:27:46.009Z,22.30
2019-02-28T09:30:17.342Z,21.37
2019-02-28T09:32:48.199Z,22.63
2019-02-28T09:35:15.672Z,23.23
2019-02-28T09:37:43.985Z,22.17
2019-02-28T09:40:14.635Z,22.63
2019-02-28T09:42:44.525Z,23.03
2019-02-28T09:45:21.061Z,24.07
2019-02-28T09:47:49.368Z,23.93
2019-02-28T09:50:22.554Z,24.13
2019-02-28T09:52:49.681Z,22.13
2019-02-28T09:55:18.038Z,24.30
2019-02-28T09:57:46.345Z,23.90
2019-02-28T10:00:17.295Z,23.53
2019-02-28T10:02:45.602Z,23.60
2019-02-28T10:05:14.134Z,22.77
2019-02-28T10:07:42.606Z,22.93
2019-02-28T10:10:21.091Z,23.37
2019-02-28T10:12:48.741Z,22.63
2019-02-28T10:15:19.544Z,24.20
2019-02-28T10:17:47.911Z,23.63
2019-02-28T10:20:19.010Z,24.10
2019-02-28T10:22:48.075Z,24.17
2019-02-28T10:25:16.551Z,24.13
2019-02-28T10:27:44.839Z,25.70
2019-02-28T10:30:30.534Z,27.20
2019-02-28T10:32:49.346Z,25.87
2019-02-28T10:35:18.547Z,26.20
2019-02-28T10:37:47.723Z,26.57
2019-02-28T10:40:24.143Z,26.37
2019-02-28T10:42:52.745Z,24.70
2019-02-28T10:45:22.101Z,26.60
2019-02-28T10:47:50.607Z,25.50
2019-02-28T10:50:21.484Z,26.70
2019-02-28T10:52:49.772Z,26.00
2019-02-28T10:55:19.404Z,26.40
2019-02-28T10:57:49.700Z,27.57
2019-02-28T11:00:25.493Z,27.20
2019-02-28T11:02:56.668Z,26.60
2019-02-28T11:05:27.500Z,28.77
2019-02-28T11:07:55.949Z,28.67
2019-02-28T11:10:35.510Z,28.67
2019-02-28T11:13:02.725Z,25.37
2019-02-28T11:15:31.141Z,24.53
2019-02-28T11:17:59.449Z,24.53
2019-02-28T11:20:27.875Z,22.90
2019-02-28T11:22:56.647Z,24.70
2019-02-28T11:25:26.486Z,24.40
2019-02-28T11:27:54.852Z,24.53
2019-02-28T11:30:28.069Z,23.00
2019-02-28T11:32:56.465Z,22.47
2019-02-28T11:35:25.191Z,22.43
2019-02-28T11:37:53.495Z,23.50
2019-02-28T11:40:24.535Z,22.53
2019-02-28T11:42:53.236Z,22.70
2019-02-28T11:45:27.522Z,21.90
2019-02-28T11:47:57.624Z,22.87
2019-02-28T11:50:26.218Z,22.73
2019-02-28T11:52:54.619Z,23.57
2019-02-28T11:55:22.912Z,22.87
2019-02-28T11:57:51.744Z,23.77
2019-02-28T12:00:26.838Z,23.63
2019-02-28T12:02:59.899Z,22.27
2019-02-28T12:05:25.567Z,20.77
2019-02-28T12:07:53.859Z,21.63
2019-02-28T12:10:22.236Z,21.43
2019-02-28T12:12:50.537Z,20.33
2019-02-28T12:15:24.456Z,21.00
2019-02-28T12:17:52.749Z,21.03
2019-02-28T12:20:25.817Z,20.93
2019-02-28T12:22:51.065Z,21.70
2019-02-28T12:25:21.679Z,21.10
2019-02-28T12:27:49.972Z,21.87
2019-02-28T12:30:22.009Z,21.90
2019-02-28T12:32:52.470Z,21.93
2019-02-28T12:35:20.898Z,22.23
2019-02-28T12:37:49.270Z,23.60
2019-02-28T12:40:20.350Z,22.50
2019-02-28T12:42:48.657Z,23.03
2019-02-28T12:45:21.236Z,23.83
2019-02-28T12:47:50.064Z,24.83
2019-02-28T12:50:18.360Z,24.23
2019-02-28T12:52:49.972Z,26.30
2019-02-28T12:55:19.275Z,27.57
2019-02-28T12:57:47.580Z,28.37
2019-02-28T13:00:27.802Z,28.83
2019-02-28T13:02:56.095Z,30.03
2019-02-28T13:05:24.454Z,32.07
2019-02-28T13:07:52.760Z,32.90
2019-02-28T13:10:26.832Z,34.27
2019-02-28T13:12:52.480Z,36.83
2019-02-28T13:15:21.589Z,37.70
2019-02-28T13:17:55.843Z,39.43
2019-02-28T13:20:33.499Z,43.33
2019-02-28T13:23:01.189Z,44.40
2019-02-28T13:25:29.721Z,42.73
2019-02-28T13:27:58.429Z,40.30
2019-02-28T13:30:27.771Z,37.77
2019-02-28T13:32:56.517Z,38.73
2019-02-28T13:35:36.406Z,37.17
2019-02-28T13:38:04.769Z,36.90
2019-02-28T13:40:33.089Z,34.50
2019-02-28T13:43:01.975Z,32.53
2019-02-28T13:45:31.435Z,31.00
2019-02-28T13:47:59.937Z,30.47
2019-02-28T13:50:33.037Z,33.00
2019-02-28T13:53:04.491Z,31.50
2019-02-28T13:55:31.446Z,31.50
2019-02-28T13:57:59.752Z,29.37
2019-02-28T14:00:32.658Z,29.77
2019-02-28T14:03:09.453Z,27.83
2019-02-28T14:05:40.782Z,27.77
2019-02-28T14:08:10.963Z,26.90
2019-02-28T14:10:36.224Z,27.00
2019-02-28T14:13:05.120Z,27.70
2019-02-28T14:15:38.894Z,26.73
2019-02-28T14:18:10.829Z,27.20
2019-02-28T14:20:38.043Z,25.63
2019-02-28T14:23:06.705Z,26.33
2019-02-28T14:25:36.317Z,22.77
2019-02-28T14:28:05.117Z,22.23
2019-02-28T14:30:33.690Z,21.00
2019-02-28T14:33:02.001Z,22.57
2019-02-28T14:35:34.122Z,20.93
2019-02-28T14:38:00.322Z,20.37
2019-02-28T14:40:28.616Z,20.87
2019-02-28T14:42:56.975Z,20.93
2019-02-28T14:45:31.356Z,22.50
2019-02-28T14:48:00.835Z,21.90
2019-02-28T14:50:29.746Z,22.30
2019-02-28T14:52:58.396Z,21.10
2019-02-28T14:55:29.235Z,20.90
2019-02-28T14:57:57.349Z,20.63
2019-02-28T15:00:31.653Z,19.50
2019-02-28T15:03:03.013Z,18.03
2019-02-28T15:05:34.026Z,18.77
2019-02-28T15:08:02.607Z,18.10
2019-02-28T15:10:34.156Z,17.87
2019-02-28T15:13:01.843Z,16.77
2019-02-28T15:15:30.388Z,16.27
2019-02-28T15:17:59.084Z,15.37
2019-02-28T15:20:31.541Z,15.17
2019-02-28T15:22:59.661Z,14.87
2019-02-28T15:25:28.946Z,13.87
2019-02-28T15:27:57.469Z,12.23
2019-02-28T15:30:33.793Z,12.57
2019-02-28T15:33:01.815Z,12.63
2019-02-28T15:35:30.117Z,11.87
2019-02-28T15:37:58.479Z,11.20
2019-02-28T15:40:29.562Z,11.10
2019-02-28T15:42:57.927Z,11.50
2019-02-28T15:45:26.932Z,10.43
2019-02-28T15:47:58.972Z,11.43
2019-02-28T15:50:29.302Z,10.93
2019-02-28T15:52:58.506Z,10.00
2019-02-28T15:55:27.403Z,10.57
2019-02-28T15:57:56.090Z,10.67
2019-02-28T16:00:33.070Z,9.80
2019-02-28T16:03:01.353Z,9.33
2019-02-28T16:05:29.728Z,9.13
2019-02-28T16:07:58.396Z,9.10
2019-02-28T16:10:32.141Z,9.03
2019-02-28T16:13:01.327Z,7.53
2019-02-28T16:15:29.784Z,8.10
2019-02-28T16:17:58.051Z,7.10
2019-02-28T16:20:28.463Z,7.20
2019-02-28T16:22:57.174Z,7.70
2019-02-28T16:25:36.458Z,8.03
2019-02-28T16:28:09.644Z,7.80
2019-02-28T16:30:39.147Z,8.47
2019-02-28T16:33:07.865Z,8.43
2019-02-28T16:35:36.222Z,8.47
2019-02-28T16:38:06.542Z,8.70
2019-02-28T16:40:34.623Z,8.17
2019-02-28T16:43:02.922Z,9.23
2019-02-28T16:45:37.421Z,9.17
2019-02-28T16:48:07.179Z,8.70
2019-02-28T16:50:35.960Z,9.23
2019-02-28T16:53:04.751Z,8.23
2019-02-28T16:55:33.177Z,7.33
2019-02-28T16:58:08.509Z,7.23
2019-02-28T17:00:39.484Z,7.90
2019-02-28T17:03:07.285Z,7.80
2019-02-28T17:05:37.904Z,7.43
2019-02-28T17:08:06.894Z,7.73
2019-02-28T17:10:40.279Z,6.97
2019-02-28T17:13:12.911Z,7.07
2019-02-28T17:16:02.385Z,6.70
2019-02-28T17:18:38.083Z,7.20
2019-02-28T17:21:06.435Z,7.03
2019-02-28T17:23:37.010Z,7.43
2019-02-28T17:26:05.249Z,8.53
2019-02-28T17:28:46.514Z,7.97
2019-02-28T17:31:19.310Z,8.20
2019-02-28T17:34:05.180Z,7.80
2019-02-28T17:36:33.899Z,7.40
2019-02-28T17:39:02.919Z,8.00
2019-02-28T17:41:33.875Z,7.77
2019-02-28T17:44:29.819Z,12.30
2019-02-28T17:47:36.717Z,8.20
2019-02-28T17:50:29.874Z,8.30
2019-02-28T17:53:13.103Z,8.17
2019-02-28T17:56:22.814Z,7.37
2019-02-28T17:58:49.884Z,19.10
2019-02-28T18:01:44.928Z,34.67
2019-02-28T18:04:36.007Z,24.03
2019-02-28T18:07:30.020Z,32.60
2019-02-28T18:10:21.103Z,37.40
2019-02-28T18:13:16.279Z,22.77
2019-02-28T18:15:54.624Z,15.37
2019-02-28T18:18:31.958Z,9.47
2019-02-28T18:21:22.634Z,8.17
2019-02-28T18:24:04.187Z,8.57
2019-02-28T18:26:45.299Z,7.63
2019-02-28T18:29:19.619Z,7.23
2019-02-28T18:31:48.035Z,10.70
2019-02-28T18:34:16.929Z,10.33
2019-02-28T18:36:46.419Z,15.63
2019-02-28T18:39:14.795Z,26.00
2019-02-28T18:41:43.284Z,18.37
2019-02-28T18:44:11.570Z,12.97
2019-02-28T18:46:39.858Z,11.77
2019-02-28T18:49:08.226Z,8.57
2019-02-28T18:51:36.517Z,6.97
2019-02-28T18:54:04.992Z,7.07
2019-02-28T18:56:33.283Z,6.23
2019-02-28T18:59:01.597Z,6.93
2019-02-28T19:01:29.900Z,8.20
2019-02-28T19:03:58.200Z,7.70
2019-02-28T19:06:26.525Z,7.17
2019-02-28T19:08:55.041Z,7.53
2019-02-28T19:11:23.411Z,6.97
2019-02-28T19:13:51.994Z,7.30
2019-02-28T19:16:20.254Z,7.73
2019-02-28T19:18:48.548Z,7.60
2019-02-28T19:21:16.848Z,7.30
2019-02-28T19:23:45.131Z,6.70
2019-02-28T19:26:13.457Z,19.60
2019-02-28T19:28:41.821Z,7.23
2019-02-28T19:31:10.153Z,6.87
2019-02-28T19:33:38.436Z,6.73
2019-02-28T19:36:06.724Z,8.53
2019-02-28T19:38:35.293Z,8.30
2019-02-28T19:41:03.594Z,15.20
2019-02-28T19:43:31.889Z,17.87
2019-02-28T19:46:00.191Z,10.50
2019-02-28T19:48:28.819Z,11.67
2019-02-28T19:50:57.132Z,10.67
2019-02-28T19:53:25.422Z,12.30
2019-02-28T19:55:53.729Z,10.50
2019-02-28T19:58:22.022Z,10.87
2019-02-28T20:00:51.986Z,10.93
2019-02-28T20:03:20.428Z,9.93
2019-02-28T20:05:48.724Z,10.23
2019-02-28T20:08:17.032Z,10.00
2019-02-28T20:10:47.092Z,10.87
2019-02-28T20:13:15.359Z,11.13
2019-02-28T20:15:43.655Z,10.97
2019-02-28T20:18:11.953Z,15.53
2019-02-28T20:20:40.238Z,13.70
2019-02-28T20:23:08.621Z,14.27
2019-02-28T20:25:37.251Z,18.40
2019-02-28T20:28:06.168Z,16.50
2019-02-28T20:30:34.459Z,18.30
2019-02-28T20:33:02.837Z,20.53
2019-02-28T20:35:31.381Z,18.13
2019-02-28T20:37:59.738Z,18.83
2019-02-28T20:40:29.902Z,15.97
2019-02-28T20:42:58.195Z,15.93
2019-02-28T20:45:28.237Z,16.53
2019-02-28T20:47:57.561Z,16.30
2019-02-28T20:50:29.269Z,16.17
2019-02-28T20:52:57.556Z,22.93
2019-02-28T20:55:25.979Z,20.67
2019-02-28T20:57:54.275Z,21.20
2019-02-28T21:00:24.515Z,18.53
2019-02-28T21:02:52.936Z,18.73
2019-02-28T21:05:21.556Z,17.90
2019-02-28T21:07:49.843Z,17.90
2019-02-28T21:10:18.156Z,16.33
2019-02-28T21:12:46.444Z,16.43
2019-02-28T21:15:14.771Z,16.00
2019-02-28T21:17:43.136Z,15.90
2019-02-28T21:20:13.945Z,14.07
2019-02-28T21:22:42.328Z,16.00
2019-02-28T21:25:13.373Z,13.77
2019-02-28T21:27:41.746Z,20.93
2019-02-28T21:30:26.809Z,19.73
2019-02-28T21:32:55.435Z,17.33
2019-02-28T21:35:25.689Z,23.37
2019-02-28T21:37:55.396Z,11.60
2019-02-28T21:40:24.035Z,9.83
2019-02-28T21:42:52.483Z,9.13
2019-02-28T21:45:23.854Z,9.33
2019-02-28T21:47:52.297Z,8.83
2019-02-28T21:50:20.819Z,9.53
2019-02-28T21:52:49.156Z,9.67
2019-02-28T21:55:18.222Z,9.20
2019-02-28T21:57:46.535Z,8.13
2019-02-28T22:00:20.965Z,7.93
2019-02-28T22:02:49.595Z,8.30
2019-02-28T22:05:18.308Z,8.00
2019-02-28T22:07:46.995Z,8.60
2019-02-28T22:10:16.226Z,8.07
2019-02-28T22:12:44.866Z,9.10
2019-02-28T22:15:23.771Z,9.30
2019-02-28T22:17:52.150Z,9.53
2019-02-28T22:20:20.518Z,9.27
2019-02-28T22:22:48.805Z,10.23
2019-02-28T22:25:17.653Z,10.33
2019-02-28T22:27:46.019Z,9.13
2019-02-28T22:30:42.539Z,11.17
2019-02-28T22:33:18.993Z,9.77
2019-02-28T22:35:58.035Z,10.53
2019-02-28T22:38:26.347Z,10.30
2019-02-28T22:40:54.637Z,9.93
2019-02-28T22:43:23.256Z,9.83
2019-02-28T22:45:52.046Z,8.83
2019-02-28T22:48:20.543Z,9.10
2019-02-28T22:50:48.847Z,8.57
2019-02-28T22:53:17.133Z,8.00
2019-02-28T22:55:46.315Z,9.13
2019-02-28T22:58:14.593Z,7.03
2019-02-28T23:01:02.052Z,7.17
2019-02-28T23:03:32.613Z,5.93
2019-02-28T23:06:00.975Z,6.20
2019-02-28T23:08:29.326Z,6.20
2019-02-28T23:10:57.631Z,5.10
2019-02-28T23:13:25.982Z,4.60
2019-02-28T23:15:54.454Z,4.90
2019-02-28T23:18:23.088Z,4.03
2019-02-28T23:20:51.449Z,3.83
2019-02-28T23:23:19.752Z,3.30
2019-02-28T23:25:48.034Z,3.60
2019-02-28T23:28:31.389Z,3.00
2019-02-28T23:31:28.677Z,2.93
2019-02-28T23:34:01.587Z,2.63
2019-02-28T23:36:29.992Z,2.77
2019-02-28T23:38:58.289Z,2.67
2019-02-28T23:41:26.581Z,2.97
2019-02-28T23:43:54.876Z,4.13
2019-02-28T23:46:23.160Z,3.80
2019-02-28T23:48:51.457Z,3.57
2019-02-28T23:51:20.038Z,3.40
2019-02-28T23:53:48.344Z,3.13
2019-02-28T23:56:16.627Z,3.83
2019-02-28T23:58:44.925Z,3.57
